createdAt,value
2019-05-22T00:01:44.048Z,101695.13
2019-05-22T00:04:15.519Z,101692.77
2019-05-22T00:06:52.169Z,101694.64
2019-05-22T00:09:31.036Z,101697.22
2019-05-22T00:12:03.741Z,101694.52
2019-05-22T00:14:38.126Z,101692.59
2019-05-22T00:17:27.875Z,101697.22
2019-05-22T00:20:08.525Z,101694.20
2019-05-22T00:22:45.090Z,101693.07
2019-05-22T00:25:16.267Z,101691.89
2019-05-22T00:27:48.390Z,101697.30
2019-05-22T00:30:29.076Z,101694.76
2019-05-22T00:33:01.927Z,101693.09
2019-05-22T00:35:40.562Z,101698.02
2019-05-22T00:38:16.597Z,101701.03
2019-05-22T00:40:47.769Z,101704.39
2019-05-22T00:43:21.423Z,101698.36
2019-05-22T00:45:55.699Z,101701.28
2019-05-22T00:48:41.389Z,101702.31
2019-05-22T00:51:30.524Z,101707.55
2019-05-22T00:54:19.605Z,101703.11
2019-05-22T00:56:53.062Z,101710.81
2019-05-22T00:59:29.536Z,101705.81
2019-05-22T01:02:22.407Z,101705.02
2019-05-22T01:04:52.052Z,101708.11
2019-05-22T01:07:28.907Z,101709.07
2019-05-22T01:09:59.600Z,101710.59
2019-05-22T01:12:38.864Z,101709.80
2019-05-22T01:15:21.435Z,101713.06
2019-05-22T01:18:09.795Z,101716.31
2019-05-22T01:20:41.266Z,101715.36
2019-05-22T01:23:16.780Z,101714.97
2019-05-22T01:26:00.006Z,101720.38
2019-05-22T01:31:33.061Z,101720.93
2019-05-22T01:34:08.062Z,101718.23
2019-05-22T01:36:41.596Z,101720.45
2019-05-22T01:39:15.285Z,101727.77
2019-05-22T01:41:46.607Z,101726.97
2019-05-22T01:44:17.970Z,101729.72
2019-05-22T01:46:48.152Z,101725.28
2019-05-22T01:49:18.565Z,101733.14
2019-05-22T01:51:47.885Z,101735.37
2019-05-22T01:54:18.646Z,101735.84
2019-05-22T01:56:48.828Z,101733.14
2019-05-22T01:59:19.427Z,101736.64
2019-05-22T02:01:48.602Z,101744.58
2019-05-22T02:04:19.080Z,101746.36
2019-05-22T02:06:48.342Z,101743.66
2019-05-22T02:09:24.596Z,101740.88
2019-05-22T02:12:00.889Z,101745.01
2019-05-22T02:14:30.285Z,101748.11
2019-05-22T02:16:59.912Z,101748.63
2019-05-22T02:19:29.359Z,101748.63
2019-05-22T02:22:00.143Z,101751.77
2019-05-22T02:24:29.945Z,101744.73
2019-05-22T02:26:58.592Z,101747.92
2019-05-22T02:29:29.319Z,101749.75
2019-05-22T02:31:58.476Z,101751.09
2019-05-22T02:34:28.297Z,101745.86
2019-05-22T02:36:57.776Z,101745.45
2019-05-22T02:39:32.733Z,101741.09
2019-05-22T02:42:06.399Z,101748.16
2019-05-22T02:44:36.588Z,101740.06
2019-05-22T02:47:19.048Z,101755.70
2019-05-22T02:49:39.178Z,101750.30
2019-05-22T02:52:10.154Z,101758.96
2019-05-22T02:54:39.757Z,101753.16
2019-05-22T02:57:10.992Z,101755.07
2019-05-22T02:59:42.812Z,101764.12
2019-05-22T03:02:16.115Z,101765.95
2019-05-22T03:05:04.143Z,101758.89
2019-05-22T03:07:35.782Z,101768.73
2019-05-22T03:10:07.185Z,101771.52
2019-05-22T03:12:36.432Z,101771.03
2019-05-22T03:15:07.534Z,101771.44
2019-05-22T03:17:38.676Z,101776.20
2019-05-22T03:20:11.973Z,101779.22
2019-05-22T03:22:47.802Z,101776.20
2019-05-22T03:25:18.188Z,101780.33
2019-05-22T03:27:50.096Z,101790.34
2019-05-22T03:30:42.440Z,101783.91
2019-05-22T03:33:19.535Z,101786.61
2019-05-22T03:35:56.821Z,101784.94
2019-05-22T03:38:26.229Z,101792.16
2019-05-22T03:40:55.820Z,101792.09
2019-05-22T03:43:27.604Z,101792.80
2019-05-22T03:45:57.275Z,101801.22
2019-05-22T03:48:30.880Z,101804.72
2019-05-22T03:51:12.362Z,101805.11
2019-05-22T03:53:43.850Z,101804.88
2019-05-22T03:56:13.340Z,101811.62
2019-05-22T03:58:42.585Z,101807.58
2019-05-22T04:01:12.454Z,101816.08
2019-05-22T04:03:41.666Z,101817.82
2019-05-22T04:06:12.242Z,101811.62
2019-05-22T04:08:41.696Z,101814.01
2019-05-22T04:11:13.026Z,101812.66
2019-05-22T04:13:42.179Z,101811.94
2019-05-22T04:16:13.333Z,101812.89
2019-05-22T04:18:43.705Z,101822.34
2019-05-22T04:21:15.150Z,101818.30
2019-05-22T04:23:44.662Z,101822.34
2019-05-22T04:26:20.207Z,101822.34
2019-05-22T04:29:06.900Z,101819.24
2019-05-22T04:31:58.053Z,101830.20
2019-05-22T04:34:28.092Z,101823.97
2019-05-22T04:37:04.647Z,101824.80
2019-05-22T04:39:37.811Z,101824.80
2019-05-22T04:42:08.047Z,101829.33
2019-05-22T04:44:40.369Z,101832.07
2019-05-22T04:50:18.831Z,101833.90
2019-05-22T04:52:49.522Z,101843.70
2019-05-22T04:55:21.861Z,101847.20
2019-05-22T04:57:51.539Z,101847.20
2019-05-22T05:00:25.400Z,101857.05
2019-05-22T05:02:54.719Z,101856.17
2019-05-22T05:05:25.960Z,101855.30
2019-05-22T05:07:56.654Z,101851.66
2019-05-22T05:10:39.405Z,101858.80
2019-05-22T05:13:07.777Z,101847.13
2019-05-22T05:15:37.541Z,101850.86
2019-05-22T05:18:06.852Z,101850.05
2019-05-22T05:20:35.986Z,101849.63
2019-05-22T05:23:05.187Z,101862.05
2019-05-22T05:25:43.500Z,101857.45
2019-05-22T05:28:13.429Z,101861.10
2019-05-22T05:30:42.859Z,101857.45
2019-05-22T05:33:20.172Z,101861.34
2019-05-22T05:35:59.366Z,101859.05
2019-05-22T05:38:38.936Z,101859.44
2019-05-22T05:41:08.352Z,101866.19
2019-05-22T05:43:37.616Z,101866.19
2019-05-22T05:46:07.482Z,101874.70
2019-05-22T05:48:43.426Z,101872.39
2019-05-22T05:51:16.075Z,101872.23
2019-05-22T05:54:22.621Z,101879.86
2019-05-22T05:56:50.692Z,101875.19
2019-05-22T05:59:26.646Z,101878.04
2019-05-22T06:01:56.066Z,101873.44
2019-05-22T06:04:34.875Z,101882.02
2019-05-22T06:07:16.912Z,101880.59
2019-05-22T06:09:48.433Z,101882.33
2019-05-22T06:12:17.674Z,101882.28
2019-05-22T06:14:47.278Z,101888.56
2019-05-22T06:17:33.342Z,101890.44
2019-05-22T06:20:08.991Z,101897.19
2019-05-22T06:22:38.182Z,101899.38
2019-05-22T06:25:08.220Z,101898.27
2019-05-22T06:27:45.188Z,101898.11
2019-05-22T06:30:21.624Z,101897.55
2019-05-22T06:33:14.149Z,101904.55
2019-05-22T06:35:44.487Z,101905.75
2019-05-22T06:38:33.367Z,101908.25
2019-05-22T06:41:02.859Z,101909.52
2019-05-22T06:43:35.209Z,101907.21
2019-05-22T06:46:09.834Z,101905.63
2019-05-22T06:48:38.930Z,101906.19
2019-05-22T06:51:19.073Z,101904.55
2019-05-22T06:53:39.103Z,101909.16
2019-05-22T06:56:08.238Z,101911.22
2019-05-22T06:58:37.615Z,101905.81
2019-05-22T07:01:10.276Z,101905.66
2019-05-22T07:03:39.536Z,101908.86
2019-05-22T07:06:09.212Z,101908.70
2019-05-22T07:08:39.040Z,101912.20
2019-05-22T07:11:09.508Z,101917.69
2019-05-22T07:13:39.090Z,101913.22
2019-05-22T07:16:08.219Z,101920.45
2019-05-22T07:18:37.363Z,101925.48
2019-05-22T07:21:07.918Z,101928.33
2019-05-22T07:23:37.109Z,101928.40
2019-05-22T07:26:06.236Z,101935.29
2019-05-22T07:28:36.599Z,101936.53
2019-05-22T07:31:07.760Z,101934.14
2019-05-22T07:33:57.333Z,101935.37
2019-05-22T07:36:27.515Z,101934.90
2019-05-22T07:38:56.824Z,101942.73
2019-05-22T07:41:26.319Z,101941.05
2019-05-22T07:43:55.485Z,101937.43
2019-05-22T07:46:24.727Z,101935.41
2019-05-22T07:48:54.277Z,101934.00
2019-05-22T07:51:24.362Z,101942.03
2019-05-22T07:53:53.797Z,101941.36
2019-05-22T07:56:23.534Z,101942.37
2019-05-22T07:58:58.962Z,101946.41
2019-05-22T08:01:27.209Z,101941.48
2019-05-22T08:03:57.798Z,101941.27
2019-05-22T08:06:27.353Z,101948.30
2019-05-22T08:08:57.143Z,101945.19
2019-05-22T08:11:27.461Z,101943.83
2019-05-22T08:13:57.784Z,101940.92
2019-05-22T08:16:27.649Z,101942.37
2019-05-22T08:18:56.886Z,101945.90
2019-05-22T08:21:26.087Z,101947.68
2019-05-22T08:23:55.671Z,101943.54
2019-05-22T08:26:26.182Z,101944.03
2019-05-22T08:28:58.379Z,101942.56
2019-05-22T08:31:27.745Z,101945.00
2019-05-22T08:33:56.994Z,101955.51
2019-05-22T08:36:26.185Z,101951.48
2019-05-22T08:38:56.653Z,101953.06
2019-05-22T08:41:29.369Z,101954.66
2019-05-22T08:44:15.057Z,101953.93
2019-05-22T08:46:31.792Z,101956.27
2019-05-22T08:49:01.434Z,101957.42
2019-05-22T08:51:30.549Z,101961.50
2019-05-22T08:53:59.728Z,101966.70
2019-05-22T08:56:35.170Z,101958.51
2019-05-22T08:59:18.888Z,101961.65
2019-05-22T09:01:38.135Z,101965.51
2019-05-22T09:04:08.060Z,101964.80
2019-05-22T09:06:37.175Z,101964.09
2019-05-22T09:09:07.162Z,101964.92
2019-05-22T09:11:36.306Z,101964.23
2019-05-22T09:14:05.498Z,101968.33
2019-05-22T09:16:34.789Z,101972.97
2019-05-22T09:19:04.371Z,101968.00
2019-05-22T09:21:32.779Z,101962.06
2019-05-22T09:24:04.312Z,101972.39
2019-05-22T09:26:33.902Z,101968.18
2019-05-22T09:29:03.063Z,101972.36
2019-05-22T09:31:32.466Z,101975.59
2019-05-22T09:34:01.714Z,101976.14
2019-05-22T09:36:31.692Z,101970.55
2019-05-22T09:39:00.819Z,101979.67
2019-05-22T09:41:29.988Z,101968.87
2019-05-22T09:43:59.133Z,101974.75
2019-05-22T09:46:28.261Z,101971.12
2019-05-22T09:48:57.981Z,101975.53
2019-05-22T09:51:27.447Z,101971.31
2019-05-22T09:53:56.917Z,101971.17
2019-05-22T09:56:26.687Z,101969.95
2019-05-22T09:58:55.906Z,101970.06
2019-05-22T10:01:25.144Z,101969.06
2019-05-22T10:03:54.356Z,101961.86
2019-05-22T10:06:23.539Z,101957.50
2019-05-22T10:08:52.740Z,101970.33
2019-05-22T10:11:22.456Z,101979.06
2019-05-22T10:13:51.730Z,101972.02
2019-05-22T10:16:21.024Z,101976.27
2019-05-22T10:18:53.044Z,101973.38
2019-05-22T10:21:22.312Z,101973.41
2019-05-22T10:23:51.437Z,101972.09
2019-05-22T10:26:21.288Z,101974.53
2019-05-22T10:28:50.465Z,101970.36
2019-05-22T10:31:21.747Z,101972.48
2019-05-22T10:33:52.107Z,101974.59
2019-05-22T10:36:21.807Z,101979.00
2019-05-22T10:38:50.481Z,101967.81
2019-05-22T10:41:19.808Z,101978.40
2019-05-22T10:43:49.395Z,101975.80
2019-05-22T10:46:17.867Z,101982.00
2019-05-22T10:48:47.494Z,101975.03
2019-05-22T10:51:16.635Z,101971.17
2019-05-22T10:53:45.896Z,101967.06
2019-05-22T10:56:15.067Z,101967.41
2019-05-22T10:58:44.221Z,101974.02
2019-05-22T11:01:13.885Z,101960.34
2019-05-22T11:03:43.085Z,101966.03
2019-05-22T11:06:12.621Z,101969.05
2019-05-22T11:08:41.376Z,101968.80
2019-05-22T11:11:10.880Z,101967.91
2019-05-22T11:13:40.342Z,101972.48
2019-05-22T11:16:09.917Z,101976.13
2019-05-22T11:18:39.764Z,101976.49
2019-05-22T11:21:09.366Z,101967.53
2019-05-22T11:23:51.472Z,101975.20
2019-05-22T11:26:09.818Z,101975.28
2019-05-22T11:28:38.291Z,101975.92
2019-05-22T11:31:08.100Z,101977.46
2019-05-22T11:33:37.255Z,101976.59
2019-05-22T11:36:06.426Z,101982.63
2019-05-22T11:38:35.816Z,101972.84
2019-05-22T11:41:05.729Z,101977.09
2019-05-22T11:43:34.917Z,101968.30
2019-05-22T11:46:04.991Z,101972.73
2019-05-22T11:48:34.514Z,101971.45
2019-05-22T11:51:03.661Z,101963.62
2019-05-22T11:53:32.775Z,101965.78
2019-05-22T11:56:02.306Z,101967.53
2019-05-22T11:58:30.715Z,101968.91
2019-05-22T12:01:00.379Z,101977.81
2019-05-22T12:03:31.453Z,101968.94
2019-05-22T12:06:00.646Z,101968.47
2019-05-22T12:08:30.127Z,101956.22
2019-05-22T12:10:59.622Z,101960.66
2019-05-22T12:13:28.459Z,101960.91
2019-05-22T12:15:58.453Z,101967.66
2019-05-22T12:18:28.346Z,101965.66
2019-05-22T12:20:57.469Z,101969.81
2019-05-22T12:23:27.158Z,101975.02
2019-05-22T12:25:56.285Z,101970.74
2019-05-22T12:28:25.672Z,101968.34
2019-05-22T12:30:56.404Z,101971.54
2019-05-22T12:33:26.071Z,101979.25
2019-05-22T12:35:55.649Z,101978.45
2019-05-22T12:38:27.174Z,101976.97
2019-05-22T12:40:57.661Z,101983.24
2019-05-22T12:43:28.558Z,101982.20
2019-05-22T12:45:57.815Z,101984.67
2019-05-22T12:48:28.091Z,101988.36
2019-05-22T12:50:58.079Z,101977.29
2019-05-22T12:53:27.202Z,101983.27
2019-05-22T12:55:56.667Z,101986.31
2019-05-22T12:58:25.378Z,101975.53
2019-05-22T13:00:54.427Z,101980.94
2019-05-22T13:03:24.354Z,101983.29
2019-05-22T13:05:53.919Z,101973.63
2019-05-22T13:08:23.893Z,101968.80
2019-05-22T13:10:53.394Z,101972.47
2019-05-22T13:13:22.601Z,101971.66
2019-05-22T13:15:52.415Z,101976.04
2019-05-22T13:18:22.649Z,101973.55
2019-05-22T13:20:52.906Z,101976.77
2019-05-22T13:23:24.990Z,101983.34
2019-05-22T13:25:54.818Z,101977.41
2019-05-22T13:28:26.153Z,101976.27
2019-05-22T13:30:56.324Z,101970.31
2019-05-22T13:33:27.642Z,101967.70
2019-05-22T13:35:57.574Z,101971.36
2019-05-22T13:38:27.471Z,101965.91
2019-05-22T13:40:57.201Z,101968.23
2019-05-22T13:43:27.420Z,101973.55
2019-05-22T13:45:56.990Z,101970.05
2019-05-22T13:48:26.201Z,101973.89
2019-05-22T13:50:56.654Z,101975.79
2019-05-22T13:53:25.954Z,101972.92
2019-05-22T13:55:55.819Z,101974.81
2019-05-22T13:58:26.269Z,101976.91
2019-05-22T14:00:55.481Z,101977.76
2019-05-22T14:03:24.844Z,101977.50
2019-05-22T14:05:54.730Z,101975.90
2019-05-22T14:08:24.557Z,101972.28
2019-05-22T14:10:53.840Z,101972.64
2019-05-22T14:13:25.518Z,101974.59
2019-05-22T14:15:57.330Z,101969.94
2019-05-22T14:18:25.819Z,101968.91
2019-05-22T14:20:54.964Z,101968.34
2019-05-22T14:23:24.423Z,101969.27
2019-05-22T14:25:53.015Z,101969.43
2019-05-22T14:28:22.635Z,101963.28
2019-05-22T14:30:52.926Z,101969.34
2019-05-22T14:33:22.342Z,101971.31
2019-05-22T14:35:52.517Z,101966.64
2019-05-22T14:38:21.876Z,101967.62
2019-05-22T14:40:51.094Z,101962.31
2019-05-22T14:43:20.291Z,101964.69
2019-05-22T14:45:49.943Z,101963.59
2019-05-22T14:48:19.195Z,101968.56
2019-05-22T14:50:48.596Z,101966.65
2019-05-22T14:53:18.173Z,101962.06
2019-05-22T14:55:46.953Z,101958.28
2019-05-22T14:58:16.929Z,101956.91
2019-05-22T15:00:46.583Z,101957.57
2019-05-22T15:03:16.583Z,101961.94
2019-05-22T15:05:45.963Z,101964.50
2019-05-22T15:08:14.407Z,101967.80
2019-05-22T15:10:44.163Z,101965.50
2019-05-22T15:13:13.793Z,101966.06
2019-05-22T15:15:43.350Z,101960.53
2019-05-22T15:18:11.755Z,101960.94
2019-05-22T15:20:42.748Z,101962.34
2019-05-22T15:23:11.878Z,101966.27
2019-05-22T15:25:41.089Z,101960.06
2019-05-22T15:28:10.215Z,101958.81
2019-05-22T15:30:39.775Z,101966.37
2019-05-22T15:33:10.465Z,101966.16
2019-05-22T15:35:40.026Z,101961.76
2019-05-22T15:38:10.352Z,101962.95
2019-05-22T15:40:40.254Z,101962.13
2019-05-22T15:43:10.796Z,101973.31
2019-05-22T15:45:40.174Z,101961.05
2019-05-22T15:48:13.563Z,101966.05
2019-05-22T15:50:44.740Z,101966.42
2019-05-22T15:53:15.447Z,101972.49
2019-05-22T15:55:46.395Z,101975.64
2019-05-22T15:58:17.175Z,101977.56
2019-05-22T16:00:47.388Z,101971.53
2019-05-22T16:03:22.504Z,101977.02
2019-05-22T16:05:52.525Z,101974.95
2019-05-22T16:08:21.985Z,101970.11
2019-05-22T16:10:52.171Z,101964.90
2019-05-22T16:13:23.094Z,101969.61
2019-05-22T16:15:54.518Z,101976.02
2019-05-22T16:18:32.056Z,101973.09
2019-05-22T16:21:02.545Z,101970.91
2019-05-22T16:23:34.099Z,101974.14
2019-05-22T16:26:06.227Z,101976.61
2019-05-22T16:28:37.080Z,101980.34
2019-05-22T16:31:09.928Z,101979.48
2019-05-22T16:33:41.552Z,101974.83
2019-05-22T16:36:12.100Z,101979.80
2019-05-22T16:38:43.378Z,101983.78
2019-05-22T16:41:13.037Z,101977.88
2019-05-22T16:43:49.729Z,101980.95
2019-05-22T16:46:16.592Z,101983.42
2019-05-22T16:48:47.868Z,101973.19
2019-05-22T16:51:17.732Z,101976.39
2019-05-22T16:53:55.646Z,101983.64
2019-05-22T16:56:26.264Z,101973.64
2019-05-22T16:58:55.959Z,101976.14
2019-05-22T17:01:27.199Z,101976.74
2019-05-22T17:03:59.953Z,101979.80
2019-05-22T17:06:30.237Z,101977.98
2019-05-22T17:09:00.461Z,101974.19
2019-05-22T17:11:30.338Z,101971.86
2019-05-22T17:14:03.130Z,101976.61
2019-05-22T17:16:37.316Z,101971.39
2019-05-22T17:19:25.590Z,101968.98
2019-05-22T17:21:39.462Z,101974.37
2019-05-22T17:24:10.553Z,101973.53
2019-05-22T17:26:39.962Z,101978.22
2019-05-22T17:29:08.723Z,101974.41
2019-05-22T17:31:37.877Z,101976.09
2019-05-22T17:34:08.996Z,101972.95
2019-05-22T17:36:38.566Z,101979.28
2019-05-22T17:39:09.636Z,101973.99
2019-05-22T17:41:41.285Z,101969.19
2019-05-22T17:44:12.061Z,101969.03
2019-05-22T17:46:42.241Z,101976.03
2019-05-22T17:49:11.429Z,101978.64
2019-05-22T17:51:40.900Z,101978.15
2019-05-22T17:54:09.760Z,101971.82
2019-05-22T17:56:39.531Z,101973.80
2019-05-22T17:59:08.921Z,101976.14
2019-05-22T18:01:38.411Z,101975.27
2019-05-22T18:04:07.570Z,101979.30
2019-05-22T18:06:36.686Z,101977.14
2019-05-22T18:09:07.043Z,101975.83
2019-05-22T18:11:36.799Z,101983.69
2019-05-22T18:14:05.946Z,101977.02
2019-05-22T18:16:35.109Z,101980.22
2019-05-22T18:19:05.267Z,101980.51
2019-05-22T18:21:35.652Z,101985.98
2019-05-22T18:24:06.511Z,101989.17
2019-05-22T18:26:36.017Z,101987.44
2019-05-22T18:29:05.228Z,101982.59
2019-05-22T18:31:34.805Z,101984.24
2019-05-22T18:34:03.209Z,101981.37
2019-05-22T18:36:32.285Z,101982.75
2019-05-22T18:39:01.425Z,101983.86
2019-05-22T18:41:30.827Z,101978.91
2019-05-22T18:44:00.087Z,101981.70
2019-05-22T18:46:29.300Z,101983.13
2019-05-22T18:48:58.426Z,101981.82
2019-05-22T18:51:28.264Z,101983.61
2019-05-22T18:53:57.399Z,101987.52
2019-05-22T18:56:26.690Z,101983.09
2019-05-22T18:58:56.225Z,101984.62
2019-05-22T19:01:25.473Z,101984.45
2019-05-22T19:03:54.586Z,101984.66
2019-05-22T19:06:30.210Z,101983.92
2019-05-22T19:08:54.803Z,101977.35
2019-05-22T19:11:25.774Z,101981.21
2019-05-22T19:13:55.142Z,101988.91
2019-05-22T19:16:24.531Z,101984.26
2019-05-22T19:18:53.748Z,101987.94
2019-05-22T19:21:22.888Z,101984.94
2019-05-22T19:23:52.108Z,101990.55
2019-05-22T19:26:22.099Z,101991.83
2019-05-22T19:28:51.301Z,101990.54
2019-05-22T19:31:20.446Z,101993.61
2019-05-22T19:33:49.640Z,101991.77
2019-05-22T19:36:18.928Z,101996.52
2019-05-22T19:38:48.325Z,102000.37
2019-05-22T19:41:17.592Z,102000.75
2019-05-22T19:43:46.899Z,101998.23
2019-05-22T19:46:16.155Z,101997.16
2019-05-22T19:48:45.307Z,101998.61
2019-05-22T19:51:17.306Z,101997.98
2019-05-22T19:53:47.772Z,101997.79
2019-05-22T19:56:17.631Z,102001.17
2019-05-22T19:58:47.024Z,102010.66
2019-05-22T20:01:16.157Z,102001.41
2019-05-22T20:03:45.282Z,102005.67
2019-05-22T20:06:14.410Z,102006.05
2019-05-22T20:08:45.013Z,102010.69
2019-05-22T20:11:14.205Z,102011.84
2019-05-22T20:13:43.489Z,102005.63
2019-05-22T20:16:12.856Z,102002.29
2019-05-22T20:18:42.717Z,102003.44
2019-05-22T20:21:12.004Z,102004.20
2019-05-22T20:23:41.406Z,102001.60
2019-05-22T20:26:10.695Z,102008.45
2019-05-22T20:28:39.880Z,102002.08
2019-05-22T20:31:09.182Z,102000.52
2019-05-22T20:33:38.297Z,102004.33
2019-05-22T20:36:08.827Z,101997.34
2019-05-22T20:38:38.419Z,101999.93
2019-05-22T20:41:08.113Z,101998.45
2019-05-22T20:43:37.792Z,101989.67
2019-05-22T20:46:07.159Z,101991.86
2019-05-22T20:48:36.900Z,101998.50
2019-05-22T20:51:07.736Z,101991.56
2019-05-22T20:53:52.841Z,101995.67
2019-05-22T20:56:11.037Z,101997.20
2019-05-22T20:58:40.754Z,102003.35
2019-05-22T21:01:09.151Z,102005.27
2019-05-22T21:03:39.677Z,102004.88
2019-05-22T21:06:10.811Z,102004.53
2019-05-22T21:08:40.115Z,101996.66
2019-05-22T21:11:09.470Z,102001.30
2019-05-22T21:13:39.787Z,102004.17
2019-05-22T21:16:09.410Z,102002.51
2019-05-22T21:18:40.325Z,101998.14
2019-05-22T21:21:09.442Z,101999.27
2019-05-22T21:23:38.654Z,102002.84
2019-05-22T21:26:08.513Z,102004.52
2019-05-22T21:28:39.040Z,102007.56
2019-05-22T21:31:08.173Z,102003.96
2019-05-22T21:33:37.774Z,101999.41
2019-05-22T21:36:09.095Z,101998.91
2019-05-22T21:38:38.409Z,102003.77
2019-05-22T21:41:08.026Z,101999.87
2019-05-22T21:43:37.281Z,101996.84
2019-05-22T21:46:06.794Z,102003.77
2019-05-22T21:48:36.183Z,102003.10
2019-05-22T21:51:05.369Z,102004.61
2019-05-22T21:53:35.646Z,102000.95
2019-05-22T21:56:06.333Z,101997.42
2019-05-22T21:58:35.976Z,101996.53
2019-05-22T22:01:13.457Z,101995.81
2019-05-22T22:03:47.660Z,101993.75
2019-05-22T22:06:17.417Z,101996.25
2019-05-22T22:08:45.836Z,101991.47
2019-05-22T22:11:15.146Z,101996.88
2019-05-22T22:13:44.441Z,102005.94
2019-05-22T22:16:13.667Z,101998.94
2019-05-22T22:18:43.048Z,101994.64
2019-05-22T22:21:13.322Z,101999.77
2019-05-22T22:23:44.608Z,102003.31
2019-05-22T22:26:25.436Z,101999.03
2019-05-22T22:28:44.503Z,101999.16
2019-05-22T22:31:15.720Z,101998.83
2019-05-22T22:33:47.553Z,101993.98
2019-05-22T22:36:16.752Z,101996.67
2019-05-22T22:38:46.357Z,101994.80
2019-05-22T22:41:15.716Z,101993.78
2019-05-22T22:43:46.571Z,101993.59
2019-05-22T22:46:23.082Z,101993.33
2019-05-22T22:48:54.018Z,101994.89
2019-05-22T22:51:24.371Z,101998.11
2019-05-22T22:53:53.565Z,101997.88
2019-05-22T22:56:23.226Z,101998.96
2019-05-22T22:58:52.949Z,101996.09
2019-05-22T23:01:27.343Z,101994.41
2019-05-22T23:03:59.170Z,101997.03
2019-05-22T23:06:28.335Z,101998.31
2019-05-22T23:08:57.543Z,101989.76
2019-05-22T23:11:28.379Z,101987.30
2019-05-22T23:14:00.063Z,101987.64
2019-05-22T23:16:29.627Z,101990.33
2019-05-22T23:19:15.777Z,101984.80
2019-05-22T23:21:45.359Z,101985.08
2019-05-22T23:24:16.579Z,101983.09
2019-05-22T23:26:46.018Z,101978.44
2019-05-22T23:29:17.023Z,101976.23
2019-05-22T23:31:46.414Z,101977.51
2019-05-22T23:34:15.707Z,101973.66
2019-05-22T23:36:45.195Z,101973.79
2019-05-22T23:39:15.129Z,101980.13
2019-05-22T23:41:45.949Z,101976.17
2019-05-22T23:44:18.621Z,101976.30
2019-05-22T23:46:47.808Z,101981.56
2019-05-22T23:49:16.917Z,101976.58
2019-05-22T23:51:46.181Z,101975.23
2019-05-22T23:54:17.055Z,101977.12
2019-05-22T23:56:46.513Z,101978.19
2019-05-22T23:59:16.923Z,101975.22
